Wetterdaten: Woche 29.10.18 - 04.11.18 (KW44)
Datum Zeit Temp. A. Feuchte A. Luftdruck Regen Wind Richtung Taupunkt Windchill Windben
29.10.2018 00:00 12,0 C 81 % 1003,0 hPa 0,0 l/m 2,3 km/h N 8,8 C 12,0 C 8,5 km/h
29.10.2018 01:00 11,0 C 81 % 1003,1 hPa 0,0 l/m 0,2 km/h N 7,9 C 11,0 C 3,6 km/h
29.10.2018 02:00 10,6 C 80 % 1003,0 hPa 0,0 l/m 1,3 km/h N 7,3 C 10,6 C 7,6 km/h
29.10.2018 03:00 10,4 C 80 % 1003,1 hPa 0,0 l/m 1,1 km/h N 7,1 C 10,4 C 6,0 km/h
29.10.2018 04:00 10,2 C 80 % 1003,4 hPa 0,0 l/m 2,3 km/h N 6,9 C 10,2 C 7,6 km/h
29.10.2018 05:00 9,4 C 81 % 1003,8 hPa 0,0 l/m 2,2 km/h N 6,2 C 9,4 C 7,2 km/h
29.10.2018 06:00 9,1 C 81 % 1004,0 hPa 0,0 l/m 0,8 km/h N 6,0 C 9,1 C 4,0 km/h
29.10.2018 07:00 9,0 C 81 % 1004,3 hPa 0,0 l/m 0,8 km/h N 5,9 C 9,0 C 4,4 km/h
29.10.2018 08:00 9,7 C 81 % 1004,3 hPa 0,0 l/m 0,6 km/h N 6,6 C 9,7 C 4,8 km/h
29.10.2018 09:00 11,3 C 81 % 1003,9 hPa 0,0 l/m 0,2 km/h N 8,0 C 11,3 C 2,4 km/h
29.10.2018 10:00 13,0 C 80 % 1003,7 hPa 0,0 l/m 0,2 km/h N 9,6 C 13,0 C 2,4 km/h
29.10.2018 11:00 14,6 C 80 % 1003,6 hPa 0,0 l/m 0,6 km/h N 11,1 C 14,6 C 4,8 km/h
29.10.2018 12:00 17,3 C 80 % 1003,4 hPa 0,0 l/m 1,2 km/h N 13,8 C 17,3 C 8,0 km/h
29.10.2018 13:00 18,9 C 78 % 1002,8 hPa 0,0 l/m 3,4 km/h N 15,0 C 18,9 C 14,9 km/h
29.10.2018 14:00 18,9 C 79 % 1002,6 hPa 0,0 l/m 0,7 km/h N 15,1 C 18,9 C 4,8 km/h
29.10.2018 15:00 19,0 C 78 % 1001,8 hPa 0,0 l/m 2,6 km/h N 15,1 C 19,0 C 7,7 km/h
29.10.2018 16:00 19,9 C 74 % 1001,1 hPa 0,0 l/m 4,2 km/h N 15,1 C 19,9 C 14,5 km/h
29.10.2018 17:00 18,8 C 76 % 1000,8 hPa 0,0 l/m 3,8 km/h N 14,5 C 18,8 C 14,1 km/h
29.10.2018 18:00 18,3 C 79 % 1000,3 hPa 0,0 l/m 1,2 km/h N 14,5 C 18,3 C 7,2 km/h
29.10.2018 19:00 18,1 C 79 % 999,9 hPa 0,0 l/m 2,4 km/h N 14,4 C 18,1 C 9,6 km/h
29.10.2018 20:00 18,1 C 78 % 999,8 hPa 0,0 l/m 3,8 km/h N 14,2 C 18,1 C 11,3 km/h
29.10.2018 21:00 18,0 C 77 % 999,0 hPa 0,0 l/m 2,3 km/h N 13,9 C 18,0 C 8,4 km/h
29.10.2018 22:00 18,1 C 75 % 998,5 hPa 0,0 l/m 3,3 km/h N 13,6 C 18,1 C 8,4 km/h
29.10.2018 23:00 18,2 C 75 % 998,0 hPa 0,0 l/m 3,4 km/h N 13,6 C 18,2 C 12,9 km/h
30.10.2018 00:00 17,9 C 73 % 996,6 hPa 0,0 l/m 2,2 km/h N 13,0 C 17,9 C 9,7 km/h
30.10.2018 01:00 18,3 C 70 % 995,6 hPa 0,0 l/m 6,3 km/h N 12,7 C 18,1 C 22,1 km/h
30.10.2018 02:00 18,3 C 68 % 996,0 hPa 0,0 l/m 6,9 km/h N 12,3 C 18,1 C 21,3 km/h
30.10.2018 03:00 18,4 C 66 % 996,6 hPa 0,0 l/m 6,1 km/h N 12,0 C 18,3 C 17,7 km/h
30.10.2018 04:00 18,2 C 70 % 997,8 hPa 1,3 l/m 4,6 km/h N 12,5 C 18,2 C 17,7 km/h
30.10.2018 05:00 15,6 C 78 % 998,8 hPa 0,0 l/m 1,5 km/h N 11,8 C 15,6 C 10,5 km/h
30.10.2018 06:00 14,5 C 73 % 999,0 hPa 0,3 l/m 4,3 km/h N 9,8 C 14,5 C 20,5 km/h
30.10.2018 07:00 14,7 C 67 % 1000,2 hPa 0,0 l/m 4,8 km/h N 8,7 C 14,7 C 19,7 km/h
30.10.2018 08:00 14,9 C 67 % 1001,1 hPa 0,0 l/m 4,8 km/h N 8,9 C 14,9 C 20,1 km/h
30.10.2018 09:00 15,7 C 65 % 1001,4 hPa 0,0 l/m 5,6 km/h N 9,2 C 15,7 C 22,1 km/h
30.10.2018 10:00 17,0 C 58 % 1001,1 hPa 0,0 l/m 7,8 km/h N 8,6 C 16,3 C 30,6 km/h
30.10.2018 11:00 17,6 C 53 % 1001,3 hPa 0,0 l/m 8,4 km/h N 7,8 C 16,6 C 26,5 km/h
30.10.2018 12:00 18,4 C 48 % 1002,3 hPa 0,0 l/m 9,0 km/h N 7,2 C 17,3 C 33,0 km/h
30.10.2018 13:00 18,7 C 46 % 1003,5 hPa 0,0 l/m 6,4 km/h N 6,9 C 18,6 C 22,5 km/h
30.10.2018 14:00 18,3 C 47 % 1003,9 hPa 0,0 l/m 6,8 km/h N 6,8 C 18,1 C 26,9 km/h
30.10.2018 15:00 17,9 C 48 % 1004,8 hPa 0,0 l/m 5,6 km/h N 6,8 C 17,9 C 24,9 km/h
30.10.2018 16:00 16,8 C 50 % 1005,6 hPa 0,0 l/m 3,9 km/h N 6,3 C 16,8 C 15,3 km/h
30.10.2018 17:00 16,0 C 53 % 1006,8 hPa 0,0 l/m 2,5 km/h N 6,2 C 16,0 C 11,7 km/h
30.10.2018 18:00 15,1 C 56 % 1008,3 hPa 0,0 l/m 0,2 km/h N 6,2 C 15,1 C 3,2 km/h
30.10.2018 19:00 14,2 C 59 % 1009,2 hPa 0,0 l/m 0,3 km/h N 6,3 C 14,2 C 6,4 km/h
30.10.2018 20:00 13,8 C 61 % 1010,3 hPa 0,0 l/m 1,1 km/h N 6,4 C 13,8 C 7,6 km/h
30.10.2018 21:00 12,9 C 63 % 1011,8 hPa 0,0 l/m 2,1 km/h N 6,1 C 12,9 C 9,2 km/h
30.10.2018 22:00 10,6 C 69 % 1013,1 hPa 0,0 l/m 0,2 km/h N 5,2 C 10,6 C 3,2 km/h
30.10.2018 23:00 9,3 C 72 % 1013,8 hPa 0,0 l/m 0,9 km/h N 4,4 C 9,3 C 4,8 km/h
31.10.2018 00:00 8,4 C 73 % 1014,6 hPa 0,0 l/m 0,0 km/h N 3,8 C 8,4 C 0,8 km/h
31.10.2018 01:00 6,7 C 77 % 1015,2 hPa 0,0 l/m 0,1 km/h N 3,0 C 6,7 C 0,4 km/h
31.10.2018 02:00 5,3 C 80 % 1015,8 hPa 0,0 l/m 0,0 km/h N 2,2 C 5,3 C 0,4 km/h
31.10.2018 03:00 4,6 C 81 % 1016,1 hPa 0,0 l/m 0,0 km/h N 1,7 C 4,6 C 0,0 km/h
31.10.2018 04:00 4,2 C 81 % 1016,6 hPa 0,0 l/m 0,0 km/h N 1,3 C 4,2 C 0,0 km/h
31.10.2018 05:00 3,5 C 82 % 1017,3 hPa 0,0 l/m 0,0 km/h N 0,7 C 3,5 C 0,0 km/h
31.10.2018 06:00 2,9 C 82 % 1018,2 hPa 0,0 l/m 0,0 km/h N 0,1 C 2,9 C 0,0 km/h
31.10.2018 07:00 3,9 C 81 % 1019,3 hPa 0,0 l/m 0,1 km/h N 0,9 C 3,9 C 2,4 km/h
31.10.2018 08:00 6,0 C 81 % 1020,0 hPa 0,0 l/m 0,0 km/h N 3,0 C 6,0 C 0,4 km/h
31.10.2018 09:00 8,2 C 81 % 1020,3 hPa 0,0 l/m 1,0 km/h N 5,1 C 8,2 C 5,6 km/h
31.10.2018 10:00 10,9 C 73 % 1020,8 hPa 0,0 l/m 0,5 km/h N 6,2 C 10,9 C 4,0 km/h
31.10.2018 11:00 12,1 C 67 % 1020,6 hPa 0,0 l/m 1,1 km/h N 6,1 C 12,1 C 4,0 km/h
31.10.2018 12:00 13,8 C 68 % 1020,2 hPa 0,0 l/m 0,6 km/h N 8,0 C 13,8 C 4,0 km/h
31.10.2018 13:00 14,9 C 70 % 1019,6 hPa 0,0 l/m 0,4 km/h N 9,5 C 14,9 C 3,6 km/h
31.10.2018 14:00 17,6 C 57 % 1018,7 hPa 0,0 l/m 2,2 km/h N 9,0 C 17,6 C 12,1 km/h
31.10.2018 15:00 17,7 C 56 % 1018,7 hPa 0,0 l/m 3,5 km/h N 8,6 C 17,7 C 14,9 km/h
31.10.2018 16:00 16,4 C 59 % 1019,0 hPa 0,0 l/m 3,2 km/h N 8,4 C 16,4 C 12,9 km/h
31.10.2018 17:00 15,3 C 61 % 1019,2 hPa 0,0 l/m 2,3 km/h N 7,7 C 15,3 C 9,7 km/h
31.10.2018 18:00 14,8 C 62 % 1019,2 hPa 0,0 l/m 2,4 km/h N 7,4 C 14,8 C 7,6 km/h
31.10.2018 19:00 14,0 C 65 % 1019,0 hPa 0,0 l/m 1,0 km/h N 7,6 C 14,0 C 6,8 km/h
31.10.2018 20:00 14,0 C 66 % 1019,1 hPa 0,0 l/m 2,7 km/h N 7,8 C 14,0 C 12,5 km/h
31.10.2018 21:00 13,5 C 70 % 1019,6 hPa 0,0 l/m 1,8 km/h N 8,0 C 13,5 C 7,2 km/h
31.10.2018 22:00 14,0 C 67 % 1019,1 hPa 0,0 l/m 3,0 km/h N 7,9 C 14,0 C 10,9 km/h
31.10.2018 23:00 13,6 C 69 % 1018,6 hPa 0,0 l/m 3,4 km/h N 8,1 C 13,6 C 13,3 km/h
01.11.2018 00:00 13,6 C 69 % 1017,9 hPa 0,0 l/m 2,6 km/h N 8,0 C 13,6 C 13,3 km/h
01.11.2018 01:00 13,0 C 70 % 1017,9 hPa 0,0 l/m 0,8 km/h N 7,5 C 13,0 C 4,4 km/h
01.11.2018 02:00 13,2 C 68 % 1017,4 hPa 0,0 l/m 1,1 km/h N 7,5 C 13,2 C 8,9 km/h
01.11.2018 03:00 14,3 C 63 % 1016,8 hPa 0,0 l/m 1,7 km/h N 7,2 C 14,3 C 11,7 km/h
01.11.2018 04:00 13,9 C 64 % 1016,6 hPa 0,0 l/m 1,8 km/h N 7,2 C 13,9 C 10,9 km/h
01.11.2018 05:00 13,8 C 64 % 1016,2 hPa 0,0 l/m 2,3 km/h N 7,0 C 13,8 C 10,1 km/h
01.11.2018 06:00 13,3 C 66 % 1015,9 hPa 0,0 l/m 0,9 km/h N 7,0 C 13,3 C 6,0 km/h
01.11.2018 07:00 12,6 C 69 % 1016,0 hPa 0,0 l/m 0,6 km/h N 7,0 C 12,6 C 5,6 km/h
01.11.2018 08:00 13,1 C 69 % 1016,2 hPa 0,0 l/m 1,5 km/h N 7,5 C 13,1 C 8,1 km/h
01.11.2018 09:00 13,5 C 71 % 1016,3 hPa 0,0 l/m 2,6 km/h N 8,3 C 13,5 C 8,5 km/h
01.11.2018 10:00 14,8 C 68 % 1016,4 hPa 0,0 l/m 1,8 km/h N 8,9 C 14,8 C 7,2 km/h
01.11.2018 11:00 18,0 C 53 % 1016,2 hPa 0,0 l/m 4,9 km/h N 8,3 C 18,0 C 14,9 km/h
01.11.2018 12:00 18,5 C 53 % 1016,3 hPa 0,0 l/m 5,6 km/h N 8,6 C 18,4 C 20,9 km/h
01.11.2018 13:00 18,6 C 52 % 1016,4 hPa 0,0 l/m 4,4 km/h N 8,5 C 18,6 C 16,9 km/h
01.11.2018 14:00 18,1 C 56 % 1016,2 hPa 0,0 l/m 4,0 km/h N 9,1 C 18,1 C 14,1 km/h
01.11.2018 15:00 17,8 C 57 % 1016,5 hPa 0,0 l/m 3,6 km/h N 9,1 C 17,8 C 10,9 km/h
01.11.2018 16:00 17,3 C 59 % 1016,3 hPa 0,0 l/m 2,5 km/h N 9,1 C 17,3 C 9,3 km/h
01.11.2018 17:00 16,7 C 61 % 1016,2 hPa 0,0 l/m 3,3 km/h N 9,1 C 16,7 C 10,4 km/h
01.11.2018 18:00 16,1 C 64 % 1016,0 hPa 0,0 l/m 3,5 km/h N 9,1 C 16,1 C 8,9 km/h
01.11.2018 19:00 15,7 C 66 % 1015,0 hPa 0,0 l/m 5,1 km/h N 9,3 C 15,7 C 13,7 km/h
01.11.2018 20:00 15,5 C 68 % 1015,3 hPa 0,0 l/m 4,1 km/h N 9,5 C 15,5 C 11,7 km/h
01.11.2018 21:00 14,9 C 71 % 1015,9 hPa 0,0 l/m 1,2 km/h N 9,6 C 14,9 C 5,2 km/h
01.11.2018 22:00 14,4 C 74 % 1015,3 hPa 0,0 l/m 0,7 km/h N 9,8 C 14,4 C 6,4 km/h
01.11.2018 23:00 14,3 C 75 % 1015,3 hPa 0,0 l/m 1,0 km/h N 9,8 C 14,3 C 6,0 km/h
02.11.2018 00:00 14,3 C 74 % 1015,6 hPa 0,0 l/m 0,9 km/h N 9,6 C 14,3 C 4,8 km/h
02.11.2018 01:00 14,5 C 71 % 1016,0 hPa 0,0 l/m 0,1 km/h N 9,2 C 14,5 C 2,0 km/h
02.11.2018 02:00 12,1 C 75 % 1016,8 hPa 0,0 l/m 0,7 km/h N 7,9 C 12,1 C 3,6 km/h
02.11.2018 03:00 10,0 C 79 % 1017,4 hPa 0,0 l/m 0,1 km/h N 6,5 C 10,0 C 0,8 km/h
02.11.2018 04:00 9,0 C 81 % 1018,0 hPa 0,0 l/m 0,0 km/h N 5,8 C 9,0 C 0,0 km/h
02.11.2018 05:00 8,1 C 81 % 1018,8 hPa 0,0 l/m 0,0 km/h N 5,0 C 8,1 C 0,4 km/h
02.11.2018 06:00 7,7 C 81 % 1019,3 hPa 0,0 l/m 0,1 km/h N 4,6 C 7,7 C 1,2 km/h
02.11.2018 07:00 7,4 C 80 % 1020,5 hPa 0,0 l/m 0,0 km/h N 4,2 C 7,4 C 0,0 km/h
02.11.2018 08:00 9,2 C 81 % 1021,1 hPa 0,0 l/m 0,0 km/h N 6,1 C 9,2 C 0,0 km/h
02.11.2018 09:00 11,2 C 81 % 1021,2 hPa 0,0 l/m 0,0 km/h N 7,9 C 11,2 C 0,8 km/h
02.11.2018 10:00 13,3 C 80 % 1021,3 hPa 0,0 l/m 0,2 km/h N 9,9 C 13,3 C 2,4 km/h
02.11.2018 11:00 15,1 C 76 % 1021,1 hPa 0,0 l/m 0,1 km/h N 10,8 C 15,1 C 2,8 km/h
02.11.2018 12:00 16,8 C 70 % 1020,3 hPa 0,0 l/m 0,1 km/h N 11,2 C 16,8 C 2,4 km/h
02.11.2018 13:00 17,0 C 67 % 1020,4 hPa 0,0 l/m 0,0 km/h N 10,7 C 17,0 C 1,6 km/h
02.11.2018 14:00 17,5 C 68 % 1020,3 hPa 0,0 l/m 0,1 km/h N 11,6 C 17,5 C 1,6 km/h
02.11.2018 15:00 16,8 C 73 % 1020,5 hPa 0,0 l/m 0,0 km/h N 12,0 C 16,8 C 0,0 km/h
02.11.2018 16:00 15,6 C 76 % 1020,5 hPa 0,0 l/m 0,0 km/h N 11,3 C 15,6 C 0,0 km/h
02.11.2018 17:00 14,2 C 79 % 1021,0 hPa 0,0 l/m 0,0 km/h N 10,7 C 14,2 C 0,4 km/h
02.11.2018 18:00 13,7 C 80 % 1021,3 hPa 0,0 l/m 0,0 km/h N 10,3 C 13,7 C 0,0 km/h
02.11.2018 19:00 13,8 C 80 % 1021,4 hPa 0,0 l/m 0,0 km/h N 10,4 C 13,8 C 0,4 km/h
02.11.2018 20:00 14,1 C 80 % 1021,7 hPa 0,8 l/m 0,0 km/h N 10,7 C 14,1 C 0,0 km/h
02.11.2018 21:00 14,2 C 80 % 1021,9 hPa 0,8 l/m 0,0 km/h N 10,8 C 14,2 C 0,0 km/h
02.11.2018 22:00 14,3 C 80 % 1021,7 hPa 0,5 l/m 0,0 km/h N 10,9 C 14,3 C 0,0 km/h
02.11.2018 23:00 14,5 C 80 % 1021,8 hPa 0,0 l/m 0,0 km/h N 11,1 C 14,5 C 0,0 km/h
03.11.2018 00:00 14,3 C 81 % 1022,0 hPa 0,0 l/m 1,5 km/h N 10,9 C 14,3 C 5,6 km/h
03.11.2018 01:00 13,0 C 81 % 1022,5 hPa 0,0 l/m 1,0 km/h N 9,8 C 13,0 C 6,0 km/h
03.11.2018 02:00 12,8 C 81 % 1022,4 hPa 0,0 l/m 0,9 km/h N 9,6 C 12,8 C 5,2 km/h
03.11.2018 03:00 12,4 C 81 % 1022,5 hPa 0,0 l/m 2,2 km/h N 9,2 C 12,4 C 8,4 km/h
03.11.2018 04:00 12,1 C 81 % 1023,0 hPa 0,0 l/m 1,8 km/h N 8,9 C 12,1 C 9,3 km/h
03.11.2018 05:00 12,0 C 80 % 1023,4 hPa 0,3 l/m 1,6 km/h N 8,6 C 12,0 C 7,2 km/h
03.11.2018 06:00 11,9 C 81 % 1023,6 hPa 0,0 l/m 2,8 km/h N 8,7 C 11,9 C 11,3 km/h
03.11.2018 07:00 12,1 C 81 % 1024,3 hPa 0,0 l/m 3,9 km/h N 8,9 C 12,1 C 13,7 km/h
03.11.2018 08:00 12,3 C 81 % 1024,9 hPa 0,0 l/m 1,6 km/h N 9,1 C 12,3 C 7,6 km/h
03.11.2018 09:00 12,7 C 80 % 1025,1 hPa 0,0 l/m 2,6 km/h N 9,4 C 12,7 C 9,6 km/h
03.11.2018 10:00 13,4 C 80 % 1025,2 hPa 0,0 l/m 2,7 km/h N 9,9 C 13,4 C 7,6 km/h
03.11.2018 11:00 13,5 C 79 % 1024,9 hPa 0,0 l/m 5,5 km/h N 9,9 C 13,5 C 15,7 km/h
03.11.2018 12:00 13,5 C 79 % 1024,8 hPa 0,0 l/m 4,4 km/h N 9,8 C 13,5 C 12,1 km/h
03.11.2018 13:00 13,7 C 79 % 1024,7 hPa 0,0 l/m 3,3 km/h N 10,1 C 13,7 C 10,1 km/h
03.11.2018 14:00 13,5 C 79 % 1024,6 hPa 0,0 l/m 3,0 km/h N 10,0 C 13,5 C 9,3 km/h
03.11.2018 15:00 13,3 C 80 % 1024,6 hPa 0,0 l/m 2,2 km/h N 9,9 C 13,3 C 6,8 km/h
03.11.2018 16:00 12,9 C 81 % 1024,8 hPa 0,0 l/m 1,9 km/h N 9,7 C 12,9 C 6,4 km/h
03.11.2018 17:00 12,7 C 81 % 1024,6 hPa 0,0 l/m 0,3 km/h N 9,5 C 12,7 C 2,4 km/h
03.11.2018 18:00 12,6 C 81 % 1024,7 hPa 0,0 l/m 0,9 km/h N 9,4 C 12,6 C 5,6 km/h
03.11.2018 19:00 12,4 C 81 % 1024,4 hPa 0,0 l/m 0,9 km/h N 9,3 C 12,4 C 6,4 km/h
03.11.2018 20:00 12,4 C 81 % 1024,3 hPa 0,0 l/m 0,1 km/h N 9,2 C 12,4 C 2,0 km/h
03.11.2018 21:00 12,4 C 80 % 1024,2 hPa 0,0 l/m 0,0 km/h N 9,1 C 12,4 C 0,4 km/h
03.11.2018 22:00 12,4 C 80 % 1023,9 hPa 0,0 l/m 0,0 km/h N 9,0 C 12,4 C 0,4 km/h
03.11.2018 23:00 12,4 C 80 % 1023,4 hPa 0,0 l/m 0,0 km/h N 9,0 C 12,4 C 0,0 km/h
04.11.2018 00:00 12,4 C 80 % 1022,8 hPa 0,0 l/m 0,0 km/h N 9,0 C 12,4 C 2,0 km/h
04.11.2018 01:00 12,0 C 80 % 1022,3 hPa 0,0 l/m 0,1 km/h N 8,8 C 12,0 C 2,8 km/h
04.11.2018 02:00 11,8 C 81 % 1021,9 hPa 0,3 l/m 0,0 km/h N 8,6 C 11,8 C 0,8 km/h
04.11.2018 03:00 11,7 C 81 % 1021,4 hPa 0,0 l/m 0,0 km/h N 8,5 C 11,7 C 1,2 km/h
04.11.2018 04:00 11,7 C 81 % 1021,0 hPa 0,0 l/m 0,0 km/h N 8,5 C 11,7 C 0,4 km/h
04.11.2018 05:00 12,0 C 81 % 1020,7 hPa 0,0 l/m 0,0 km/h N 8,8 C 12,0 C 0,4 km/h
04.11.2018 06:00 12,2 C 82 % 1020,3 hPa 0,0 l/m 0,0 km/h N 9,2 C 12,2 C 0,8 km/h
04.11.2018 07:00 12,2 C 82 % 1020,5 hPa 0,0 l/m 0,0 km/h N 9,2 C 12,2 C 0,8 km/h
04.11.2018 08:00 12,4 C 82 % 1020,4 hPa 0,0 l/m 0,0 km/h N 9,4 C 12,4 C 0,8 km/h
04.11.2018 09:00 12,9 C 82 % 1020,1 hPa 0,0 l/m 0,1 km/h N 9,9 C 12,9 C 2,4 km/h
04.11.2018 10:00 13,0 C 82 % 1019,8 hPa 0,0 l/m 0,2 km/h N 10,0 C 13,0 C 2,8 km/h
04.11.2018 11:00 13,0 C 81 % 1019,5 hPa 0,0 l/m 0,2 km/h N 9,9 C 13,0 C 3,6 km/h
04.11.2018 12:00 13,3 C 81 % 1019,0 hPa 0,0 l/m 0,2 km/h N 10,1 C 13,3 C 4,8 km/h
04.11.2018 13:00 13,7 C 81 % 1018,6 hPa 0,0 l/m 0,2 km/h N 10,5 C 13,7 C 3,7 km/h
04.11.2018 14:00 13,8 C 80 % 1018,2 hPa 0,0 l/m 0,0 km/h N 10,4 C 13,8 C 4,8 km/h
04.11.2018 15:00 13,9 C 80 % 1018,0 hPa 0,0 l/m 0,0 km/h N 10,5 C 13,9 C 5,6 km/h
04.11.2018 16:00 13,6 C 80 % 1017,8 hPa 0,0 l/m 0,0 km/h N 10,3 C 13,6 C 2,4 km/h
04.11.2018 17:00 12,8 C 81 % 1017,8 hPa 0,0 l/m 0,0 km/h N 9,5 C 12,8 C 0,8 km/h
04.11.2018 18:00 11,8 C 81 % 1018,0 hPa 0,0 l/m 0,0 km/h N 8,6 C 11,8 C 1,6 km/h
04.11.2018 19:00 11,6 C 80 % 1018,0 hPa 0,0 l/m 0,0 km/h N 8,3 C 11,6 C 1,6 km/h
04.11.2018 20:00 11,3 C 81 % 1017,9 hPa 0,0 l/m 0,0 km/h N 8,1 C 11,3 C 0,8 km/h
04.11.2018 21:00 11,6 C 81 % 1018,1 hPa 0,0 l/m 0,0 km/h N 8,5 C 11,6 C 1,6 km/h
04.11.2018 22:00 10,9 C 81 % 1018,0 hPa 0,0 l/m 0,0 km/h N 7,8 C 10,9 C 0,0 km/h
04.11.2018 23:00 9,5 C 81 % 1017,9 hPa 0,0 l/m 0,0 km/h N 6,4 C 9,5 C 0,0 km/h
Min-Datum _ 31.10.18 30.10.18 30.10.18 - 29.10.18 - 31.10.18 31.10.18 29.10.18
_ Min-Zeit 06:45 13:15 01:30 - 09:45 - 06:30 06:15 09:45
Minimum _ 2,8 C 46 % 995,4 hPa - 0,0 km/h - -0,0 C 2,9 C 0,0 km/h
Max-Datum _ 29.10.18 31.10.18 03.11.18 30.10.18 30.10.18 - 29.10.18 29.10.18 30.10.18
_ Max-Zeit 16:30 04:30 09:30 04:30 12:30 - 16:15 16:15 12:15
Maximum _ 20,2 C 82 % 1025,3 hPa 1,3 l/m 9,9 km/h
N
- 15,3 C 20,1 C 40,2 km/h
N
Durchschnitt _ 13,5 C 73 % 1014,8 hPa #4,2 l/m 1,7 km/h N 8,7 C 13,5 C 7,2 km/h